Terminal Aerodrome Forecast
Issued by NWS Memphis, TN

Home | Current Version | Previous Version | Text Only | Print | Product List | Glossary On
Versions: 1 2 3 4 5 6 7 8 9 10 11 12 13 14 15 16 17 18
000
FTUS44 KMEG 241732
TAFMKL
TAF
KMKL 241732Z 2418/2518 21005KT P6SM VCTS SCT025 BKN040CB
      TEMPO 2418/2422 3SM -TSRA BKN030CB
     FM250100 00000KT P6SM SCT040 SCT250
      TEMPO 2509/2513 3SM BR
     FM251500 21006KT P6SM SCT040=

USA.gov is the U.S. government's official web portal to all federal, state and local government web resources and services.